Pagrindinis puslapis
METAR-TAF:

METAR-TAF

Oro uostai :

Unalakleet, Aliaska, Jungtinės Amerikos Valstijos

platuma: 63-53N, ilguma: 160-48W, Aukštis: 6 m

Dabartinis oras

Ataskaita buvo paskelbta 39 minutes, ne 05:56 UTC
Vėjas 3 kt iš Vakarų
Temperatūra 11°C
Drėgmė 82%
Slėgis 1025 hPa
Matomumas: 16.1 km
Giedras dangus

METAR: PAUN 200556Z AUTO 26003KT 10SM CLR 11/08 A3026 RMK AO2 SLP249 6//// T01110083 10122 20111 51005 PNO $

Laikas: 22:35 (06:35 UTC)

Prognozė

Ataskaita buvo paskelbta 1 valandą ir 15 minutes, ne 05:20 UTC
Prognozė galioja nuo 20 metu 06 UTC su 21 metu 06 UTC
Vėjas 7 kt iš Vakarų/Pietvakarių
Matomumas: 10 km
Išsisklaidę debesys ne aukštis 1500 ft
Nuo 20 metu 1500 UTC
Vėjas 5 kt iš Rytų
Matomumas: 10 km
Giedras dangus

TAF: PAUN 200520Z 2006/2106 25007KT P6SM SCT015 FM201500 08005KT P6SM SKC

Orai ataskaitas ir orų prognozės (METAR, TAF).

turimą stotys yra geltonos ir raudonos taškus žemėlapyje.

Perkelti pele per norėdami pamatyti stoties vardą.

Tada spustelėkite, norėdami matyti oro stebėjimo ir prognozės.

Norėdami pakeisti žemėlapį: spustelėkite ant žalios mygtukų su juodo kryžiaus žemyn,; žalią mygtuką su brūkšneliu, jei norite nutolinti; arba žalių rodyklių gretimoms žemėlapius.


METAR-TAF: